EmailTwitter


Observations de surface / Québec / CYMX

Régions: Québec | Canada | États-Unis | Europe | France | UK | Ailleurs
Station
Affichage
Infos & localisation pour CYMX | Aide pour décoder les METARs

Observations prises le 2018-11-18 à 01H00 UTC à MONTREAL MIRABEL, QB (CYMX)

Etat du ciel: quelques nuages.

Température: -4.0 Celsius

Point de rosée: -10.0 Celsius

Humidité relative: 63%

Facteur vent: -6.

Vents: Ouest-nord-ouest à 6 km/h ou 3 noeuds.

Pression au niveau moyen de la mer: 102.32 kilopascals.

Calage altimétrique: 102.27 kilopascals ou 30.20 pouces de mercure.

Visibilité horizontale: 25.00 milles terrestres ou 40.00 kilomètres.

Observation METAR:

CYMX 180100Z 29003KT 230V340 25SM FEW080 M04/M10 A3020 RMK AC1 AC TR SLP232=